Humboldt, Nevada
Current Conditions -  °F | °C
As of 3:56 AM on Monday 20 Oct 2014 (Local Time) from KWMC Reporting Station
Clear Clear  
Wind Chill: 31°   Ceiling: Unl
Heat Index: 35°   Visibility: 10mi
Dew Point: 23°   Wind: 5mph
Humidity: 61%   Direction: 320°NW
Pressure: 29.94"   Gusts: NA
Location:  40.601°N, 117.984°W
Report Text: KWMC 201056Z AUTO 32004KT 10SM CLR 02/M05 A2994 RMK AO2 SLP113 T00171050
Loading
Personal Weather Stations






























Interactive Weather Map
Tropical Storm Tracking
New forecast layout! Learn more

10-Day Weather Forecast

Advertisements
Track Severe Weather on mobile